sensor_id;sensor_type;location;lat;lon;timestamp;pressure;altitude;pressure_sealevel;temperature
67966;BMP280;54749;47.850;9.002;2023-01-15T00:02:12;95136.44;;;9.10
67966;BMP280;54749;47.850;9.002;2023-01-15T00:04:42;95139.88;;;9.09
67966;BMP280;54749;47.850;9.002;2023-01-15T00:07:09;95127.16;;;9.11
67966;BMP280;54749;47.850;9.002;2023-01-15T00:09:36;95122.03;;;9.22
67966;BMP280;54749;47.850;9.002;2023-01-15T00:12:03;95131.38;;;9.30
67966;BMP280;54749;47.850;9.002;2023-01-15T00:14:31;95127.09;;;9.31
67966;BMP280;54749;47.850;9.002;2023-01-15T00:16:58;95133.63;;;9.33
67966;BMP280;54749;47.850;9.002;2023-01-15T00:19:25;95122.47;;;9.36
67966;BMP280;54749;47.850;9.002;2023-01-15T00:21:52;95119.16;;;9.35
67966;BMP280;54749;47.850;9.002;2023-01-15T00:24:20;95119.72;;;9.39
67966;BMP280;54749;47.850;9.002;2023-01-15T00:27:09;95105.00;;;9.44
67966;BMP280;54749;47.850;9.002;2023-01-15T00:29:55;95100.91;;;9.52
67966;BMP280;54749;47.850;9.002;2023-01-15T00:32:21;95101.16;;;9.58
67966;BMP280;54749;47.850;9.002;2023-01-15T00:34:49;95086.16;;;9.66
67966;BMP280;54749;47.850;9.002;2023-01-15T00:37:16;95089.25;;;9.69
67966;BMP280;54749;47.850;9.002;2023-01-15T00:39:43;95090.72;;;9.72
67966;BMP280;54749;47.850;9.002;2023-01-15T00:42:10;95094.47;;;9.86
67966;BMP280;54749;47.850;9.002;2023-01-15T00:44:38;95085.72;;;9.90
67966;BMP280;54749;47.850;9.002;2023-01-15T00:47:05;95096.34;;;9.94
67966;BMP280;54749;47.850;9.002;2023-01-15T00:49:36;95105.63;;;9.93
67966;BMP280;54749;47.850;9.002;2023-01-15T00:52:03;95103.78;;;9.95
67966;BMP280;54749;47.850;9.002;2023-01-15T00:54:30;95089.44;;;9.96
67966;BMP280;54749;47.850;9.002;2023-01-15T00:56:58;95091.97;;;9.96
67966;BMP280;54749;47.850;9.002;2023-01-15T00:59:26;95083.31;;;9.98
67966;BMP280;54749;47.850;9.002;2023-01-15T01:01:53;95091.31;;;10.03
67966;BMP280;54749;47.850;9.002;2023-01-15T01:04:20;95087.06;;;10.03
67966;BMP280;54749;47.850;9.002;2023-01-15T01:06:47;95097.00;;;10.05
67966;BMP280;54749;47.850;9.002;2023-01-15T01:09:15;95094.63;;;10.03
67966;BMP280;54749;47.850;9.002;2023-01-15T01:11:42;95082.81;;;10.04
67966;BMP280;54749;47.850;9.002;2023-01-15T01:14:10;95055.81;;;10.04
67966;BMP280;54749;47.850;9.002;2023-01-15T01:16:39;95062.88;;;10.01
67966;BMP280;54749;47.850;9.002;2023-01-15T01:19:15;95071.34;;;10.00
67966;BMP280;54749;47.850;9.002;2023-01-15T01:21:44;95070.44;;;10.01
67966;BMP280;54749;47.850;9.002;2023-01-15T01:24:14;95070.59;;;9.99
67966;BMP280;54749;47.850;9.002;2023-01-15T01:26:41;95051.72;;;10.03
67966;BMP280;54749;47.850;9.002;2023-01-15T01:29:15;95061.53;;;10.06
67966;BMP280;54749;47.850;9.002;2023-01-15T01:31:43;95065.00;;;10.05
67966;BMP280;54749;47.850;9.002;2023-01-15T01:34:11;95052.53;;;10.04
67966;BMP280;54749;47.850;9.002;2023-01-15T01:36:40;95062.88;;;10.01
67966;BMP280;54749;47.850;9.002;2023-01-15T01:39:14;95047.88;;;9.99
67966;BMP280;54749;47.850;9.002;2023-01-15T01:41:42;95054.50;;;10.00
67966;BMP280;54749;47.850;9.002;2023-01-15T01:47:15;95061.00;;;10.03
67966;BMP280;54749;47.850;9.002;2023-01-15T01:49:46;95051.03;;;10.01
67966;BMP280;54749;47.850;9.002;2023-01-15T01:52:18;95052.53;;;10.04
67966;BMP280;54749;47.850;9.002;2023-01-15T01:54:48;95059.13;;;10.05
67966;BMP280;54749;47.850;9.002;2023-01-15T01:57:16;95043.88;;;10.06
67966;BMP280;54749;47.850;9.002;2023-01-15T01:59:46;95041.63;;;10.03
67966;BMP280;54749;47.850;9.002;2023-01-15T02:02:15;95039.75;;;10.05
67966;BMP280;54749;47.850;9.002;2023-01-15T02:04:45;95022.22;;;10.04
67966;BMP280;54749;47.850;9.002;2023-01-15T02:07:12;95022.88;;;10.06
67966;BMP280;54749;47.850;9.002;2023-01-15T02:09:42;95014.09;;;10.10
67966;BMP280;54749;47.850;9.002;2023-01-15T02:12:22;95019.53;;;10.15
67966;BMP280;54749;47.850;9.002;2023-01-15T02:16:02;95006.38;;;10.20
67966;BMP280;54749;47.850;9.002;2023-01-15T02:18:06;95010.50;;;10.21
67966;BMP280;54749;47.850;9.002;2023-01-15T02:20:41;94994.03;;;10.17
67966;BMP280;54749;47.850;9.002;2023-01-15T02:28:59;94963.47;;;10.20
67966;BMP280;54749;47.850;9.002;2023-01-15T02:31:36;94980.22;;;10.21
67966;BMP280;54749;47.850;9.002;2023-01-15T02:34:26;94972.78;;;10.20
67966;BMP280;54749;47.850;9.002;2023-01-15T02:37:12;94984.22;;;10.15
67966;BMP280;54749;47.850;9.002;2023-01-15T02:39:43;94981.03;;;10.13
67966;BMP280;54749;47.850;9.002;2023-01-15T02:42:13;94980.75;;;10.15
67966;BMP280;54749;47.850;9.002;2023-01-15T02:44:48;94978.09;;;10.17
67966;BMP280;54749;47.850;9.002;2023-01-15T02:47:22;94974.78;;;10.16
67966;BMP280;54749;47.850;9.002;2023-01-15T02:49:52;94956.03;;;10.19
67966;BMP280;54749;47.850;9.002;2023-01-15T02:52:33;94952.56;;;10.20
67966;BMP280;54749;47.850;9.002;2023-01-15T02:55:11;94946.44;;;10.22
67966;BMP280;54749;47.850;9.002;2023-01-15T02:57:45;94944.59;;;10.24
67966;BMP280;54749;47.850;9.002;2023-01-15T03:00:18;94950.97;;;10.28
67966;BMP280;54749;47.850;9.002;2023-01-15T03:02:50;94934.22;;;10.27
67966;BMP280;54749;47.850;9.002;2023-01-15T03:05:23;94947.13;;;10.24
67966;BMP280;54749;47.850;9.002;2023-01-15T03:07:55;94947.91;;;10.25
67966;BMP280;54749;47.850;9.002;2023-01-15T03:10:48;94937.41;;;10.29
67966;BMP280;54749;47.850;9.002;2023-01-15T03:13:26;94928.91;;;10.30
67966;BMP280;54749;47.850;9.002;2023-01-15T03:16:02;94930.47;;;10.31
67966;BMP280;54749;47.850;9.002;2023-01-15T03:21:42;94915.59;;;10.28
67966;BMP280;54749;47.850;9.002;2023-01-15T03:24:11;94916.53;;;10.27
67966;BMP280;54749;47.850;9.002;2023-01-15T03:26:39;94914.94;;;10.26
67966;BMP280;54749;47.850;9.002;2023-01-15T03:29:08;94914.81;;;10.28
67966;BMP280;54749;47.850;9.002;2023-01-15T03:31:36;94919.72;;;10.29
67966;BMP280;54749;47.850;9.002;2023-01-15T03:34:03;94916.41;;;10.29
67966;BMP280;54749;47.850;9.002;2023-01-15T03:36:33;94906.31;;;10.29
67966;BMP280;54749;47.850;9.002;2023-01-15T03:39:02;94890.22;;;10.30
67966;BMP280;54749;47.850;9.002;2023-01-15T03:44:25;94922.34;;;10.37
67966;BMP280;54749;47.850;9.002;2023-01-15T03:50:02;94920.22;;;10.42
67966;BMP280;54749;47.850;9.002;2023-01-15T03:52:47;94904.56;;;10.38
67966;BMP280;54749;47.850;9.002;2023-01-15T03:55:25;94901.22;;;10.38
67966;BMP280;54749;47.850;9.002;2023-01-15T03:58:08;94903.06;;;10.36
67966;BMP280;54749;47.850;9.002;2023-01-15T04:00:47;94904.56;;;10.38
67966;BMP280;54749;47.850;9.002;2023-01-15T04:03:19;94904.56;;;10.38
67966;BMP280;54749;47.850;9.002;2023-01-15T04:05:49;94896.16;;;10.38
67966;BMP280;54749;47.850;9.002;2023-01-15T04:08:19;94890.84;;;10.41
67966;BMP280;54749;47.850;9.002;2023-01-15T04:10:56;94885.50;;;10.44
67966;BMP280;54749;47.850;9.002;2023-01-15T04:13:27;94909.03;;;10.44
67966;BMP280;54749;47.850;9.002;2023-01-15T04:15:57;94895.59;;;10.44
67966;BMP280;54749;47.850;9.002;2023-01-15T04:18:25;94905.06;;;10.42
67966;BMP280;54749;47.850;9.002;2023-01-15T04:20:52;94904.38;;;10.40
67966;BMP280;54749;47.850;9.002;2023-01-15T04:23:22;94896.16;;;10.38
67966;BMP280;54749;47.850;9.002;2023-01-15T04:25:49;94890.19;;;10.39
67966;BMP280;54749;47.850;9.002;2023-01-15T04:28:16;94896.81;;;10.40
67966;BMP280;54749;47.850;9.002;2023-01-15T04:30:43;94892.94;;;10.45
67966;BMP280;54749;47.850;9.002;2023-01-15T04:33:10;94898.00;;;10.45
67966;BMP280;54749;47.850;9.002;2023-01-15T04:35:37;94895.59;;;10.44
67966;BMP280;54749;47.850;9.002;2023-01-15T04:38:04;94888.31;;;10.41
67966;BMP280;54749;47.850;9.002;2023-01-15T04:40:31;94882.88;;;10.36
67966;BMP280;54749;47.850;9.002;2023-01-15T04:43:17;94898.94;;;10.35
67966;BMP280;54749;47.850;9.002;2023-01-15T04:46:03;94869.88;;;10.31
67966;BMP280;54749;47.850;9.002;2023-01-15T04:48:30;94869.88;;;10.31
67966;BMP280;54749;47.850;9.002;2023-01-15T04:51:02;94860.44;;;10.33
67966;BMP280;54749;47.850;9.002;2023-01-15T04:53:29;94861.38;;;10.32
67966;BMP280;54749;47.850;9.002;2023-01-15T04:56:03;94852.75;;;10.34
67966;BMP280;54749;47.850;9.002;2023-01-15T04:58:31;94853.50;;;10.35
67966;BMP280;54749;47.850;9.002;2023-01-15T05:00:58;94867.22;;;10.32
67966;BMP280;54749;47.850;9.002;2023-01-15T05:03:27;94878.13;;;10.33
67966;BMP280;54749;47.850;9.002;2023-01-15T05:05:54;94863.38;;;10.29
67966;BMP280;54749;47.850;9.002;2023-01-15T05:08:21;94856.88;;;10.26
67966;BMP280;54749;47.850;9.002;2023-01-15T05:10:48;94864.59;;;10.25
67966;BMP280;54749;47.850;9.002;2023-01-15T05:13:15;94862.22;;;10.23
67966;BMP280;54749;47.850;9.002;2023-01-15T05:15:42;94857.03;;;10.25
67966;BMP280;54749;47.850;9.002;2023-01-15T05:18:11;94865.41;;;10.25
67966;BMP280;54749;47.850;9.002;2023-01-15T05:20:41;94868.06;;;10.24
67966;BMP280;54749;47.850;9.002;2023-01-15T05:23:08;94875.34;;;10.27
67966;BMP280;54749;47.850;9.002;2023-01-15T05:25:36;94863.00;;;10.24
67966;BMP280;54749;47.850;9.002;2023-01-15T05:28:03;94867.25;;;10.23
67966;BMP280;54749;47.850;9.002;2023-01-15T05:30:30;94849.59;;;10.23
67966;BMP280;54749;47.850;9.002;2023-01-15T05:32:57;94863.94;;;10.23
67966;BMP280;54749;47.850;9.002;2023-01-15T05:35:24;94839.91;;;10.19
67966;BMP280;54749;47.850;9.002;2023-01-15T05:37:51;94852.66;;;10.17
67966;BMP280;54749;47.850;9.002;2023-01-15T05:40:18;94864.63;;;10.15
67966;BMP280;54749;47.850;9.002;2023-01-15T05:42:45;94856.41;;;10.14
67966;BMP280;54749;47.850;9.002;2023-01-15T05:45:12;94875.03;;;10.13
67966;BMP280;54749;47.850;9.002;2023-01-15T05:47:39;94856.41;;;10.14
67966;BMP280;54749;47.850;9.002;2023-01-15T05:50:06;94867.69;;;10.10
67966;BMP280;54749;47.850;9.002;2023-01-15T05:52:33;94855.09;;;10.10
67966;BMP280;54749;47.850;9.002;2023-01-15T05:55:01;94856.69;;;10.11
67966;BMP280;54749;47.850;9.002;2023-01-15T05:57:27;94838.09;;;10.12
67966;BMP280;54749;47.850;9.002;2023-01-15T05:59:54;94851.63;;;10.11
67966;BMP280;54749;47.850;9.002;2023-01-15T06:02:22;94839.44;;;10.06
67966;BMP280;54749;47.850;9.002;2023-01-15T06:04:49;94842.88;;;10.05
67966;BMP280;54749;47.850;9.002;2023-01-15T06:07:16;94832.94;;;10.04
67966;BMP280;54749;47.850;9.002;2023-01-15T06:09:44;94843.69;;;10.06
67966;BMP280;54749;47.850;9.002;2023-01-15T06:12:11;94861.47;;;10.04
67966;BMP280;54749;47.850;9.002;2023-01-15T06:14:38;94855.91;;;10.01
67966;BMP280;54749;47.850;9.002;2023-01-15T06:17:04;94830.66;;;10.01
67966;BMP280;54749;47.850;9.002;2023-01-15T06:19:32;94837.31;;;10.02
67966;BMP280;54749;47.850;9.002;2023-01-15T06:21:59;94860.44;;;9.98
67966;BMP280;54749;47.850;9.002;2023-01-15T06:24:26;94820.88;;;9.98
67966;BMP280;54749;47.850;9.002;2023-01-15T06:26:53;94850.94;;;9.82
67966;BMP280;54749;47.850;9.002;2023-01-15T06:29:20;94826.91;;;9.79
67966;BMP280;54749;47.850;9.002;2023-01-15T06:31:47;94849.75;;;9.77
67966;BMP280;54749;47.850;9.002;2023-01-15T06:34:15;94829.16;;;9.72
67966;BMP280;54749;47.850;9.002;2023-01-15T06:36:42;94826.75;;;9.71
67966;BMP280;54749;47.850;9.002;2023-01-15T06:39:10;94840.59;;;9.67
67966;BMP280;54749;47.850;9.002;2023-01-15T06:41:37;94823.84;;;9.66
67966;BMP280;54749;47.850;9.002;2023-01-15T06:44:22;94818.00;;;9.65
67966;BMP280;54749;47.850;9.002;2023-01-15T06:47:18;94825.44;;;9.67
67966;BMP280;54749;47.850;9.002;2023-01-15T06:49:49;94825.44;;;9.67
67966;BMP280;54749;47.850;9.002;2023-01-15T06:52:16;94822.13;;;9.66
67966;BMP280;54749;47.850;9.002;2023-01-15T06:54:44;94808.72;;;9.66
67966;BMP280;54749;47.850;9.002;2023-01-15T06:57:10;94819.47;;;9.68
67966;BMP280;54749;47.850;9.002;2023-01-15T06:59:38;94818.00;;;9.65
67966;BMP280;54749;47.850;9.002;2023-01-15T07:02:05;94796.50;;;9.62
67966;BMP280;54749;47.850;9.002;2023-01-15T07:04:32;94798.41;;;9.60
67966;BMP280;54749;47.850;9.002;2023-01-15T07:06:59;94803.56;;;9.58
67966;BMP280;54749;47.850;9.002;2023-01-15T07:09:26;94791.50;;;9.52
67966;BMP280;54749;47.850;9.002;2023-01-15T07:11:53;94784.38;;;9.48
67966;BMP280;54749;47.850;9.002;2023-01-15T07:14:23;94787.03;;;9.46
67966;BMP280;54749;47.850;9.002;2023-01-15T07:16:50;94778.53;;;9.47
67966;BMP280;54749;47.850;9.002;2023-01-15T07:19:18;94754.63;;;9.51
67966;BMP280;54749;47.850;9.002;2023-01-15T07:21:46;94758.31;;;9.57
67966;BMP280;54749;47.850;9.002;2023-01-15T07:24:13;94758.84;;;9.60
67966;BMP280;54749;47.850;9.002;2023-01-15T07:26:41;94742.63;;;9.62
67966;BMP280;54749;47.850;9.002;2023-01-15T07:29:08;94747.25;;;9.67
67966;BMP280;54749;47.850;9.002;2023-01-15T07:31:36;94697.47;;;9.78
67966;BMP280;54749;47.850;9.002;2023-01-15T07:34:03;94727.63;;;9.97
67966;BMP280;54749;47.850;9.002;2023-01-15T07:36:30;94711.81;;;10.21
67966;BMP280;54749;47.850;9.002;2023-01-15T07:38:58;94728.59;;;10.39
67966;BMP280;54749;47.850;9.002;2023-01-15T07:41:25;94739.97;;;10.43
67966;BMP280;54749;47.850;9.002;2023-01-15T07:44:11;94723.31;;;10.50
67966;BMP280;54749;47.850;9.002;2023-01-15T07:46:57;94746.41;;;10.54
67966;BMP280;54749;47.850;9.002;2023-01-15T07:49:43;94750.59;;;10.63
67966;BMP280;54749;47.850;9.002;2023-01-15T07:52:18;94747.34;;;10.53
67966;BMP280;54749;47.850;9.002;2023-01-15T07:54:47;94781.53;;;10.48
67966;BMP280;54749;47.850;9.002;2023-01-15T07:57:15;94777.00;;;10.51
67966;BMP280;54749;47.850;9.002;2023-01-15T07:59:43;94765.00;;;10.53
67966;BMP280;54749;47.850;9.002;2023-01-15T08:02:10;94778.94;;;10.57
67966;BMP280;54749;47.850;9.002;2023-01-15T08:04:39;94778.09;;;10.66
67966;BMP280;54749;47.850;9.002;2023-01-15T08:07:06;94774.50;;;10.68
67966;BMP280;54749;47.850;9.002;2023-01-15T08:09:34;94775.56;;;10.66
67966;BMP280;54749;47.850;9.002;2023-01-15T08:12:02;94779.25;;;10.71
67966;BMP280;54749;47.850;9.002;2023-01-15T08:14:48;94776.16;;;10.77
67966;BMP280;54749;47.850;9.002;2023-01-15T08:17:38;94781.72;;;10.81
67966;BMP280;54749;47.850;9.002;2023-01-15T08:20:09;94781.56;;;10.82
67966;BMP280;54749;47.850;9.002;2023-01-15T08:22:37;94799.91;;;10.84
67966;BMP280;54749;47.850;9.002;2023-01-15T08:25:05;94806.53;;;10.85
67966;BMP280;54749;47.850;9.002;2023-01-15T08:27:33;94802.78;;;10.89
67966;BMP280;54749;47.850;9.002;2023-01-15T08:30:00;94821.91;;;10.91
67966;BMP280;54749;47.850;9.002;2023-01-15T08:32:27;94815.00;;;10.93
67966;BMP280;54749;47.850;9.002;2023-01-15T08:34:55;94825.59;;;10.97
67966;BMP280;54749;47.850;9.002;2023-01-15T08:37:21;94838.25;;;10.97
67966;BMP280;54749;47.850;9.002;2023-01-15T08:39:51;94847.72;;;10.95
67966;BMP280;54749;47.850;9.002;2023-01-15T08:42:19;94859.19;;;10.89
67966;BMP280;54749;47.850;9.002;2023-01-15T08:44:47;94874.13;;;10.83
67966;BMP280;54749;47.850;9.002;2023-01-15T08:47:15;94872.59;;;10.73
67966;BMP280;54749;47.850;9.002;2023-01-15T08:49:43;94895.75;;;10.68
67966;BMP280;54749;47.850;9.002;2023-01-15T08:52:10;94891.63;;;10.68
67966;BMP280;54749;47.850;9.002;2023-01-15T08:54:37;94897.13;;;10.63
67966;BMP280;54749;47.850;9.002;2023-01-15T08:57:05;94920.00;;;10.52
67966;BMP280;54749;47.850;9.002;2023-01-15T08:59:35;94927.19;;;10.21
67966;BMP280;54749;47.850;9.002;2023-01-15T09:02:02;94964.28;;;10.21
67966;BMP280;54749;47.850;9.002;2023-01-15T09:04:29;94961.97;;;9.82
67966;BMP280;54749;47.850;9.002;2023-01-15T09:06:56;94983.25;;;9.14
67966;BMP280;54749;47.850;9.002;2023-01-15T09:09:23;94998.41;;;8.85
67966;BMP280;54749;47.850;9.002;2023-01-15T09:11:50;94998.81;;;8.80
67966;BMP280;54749;47.850;9.002;2023-01-15T09:14:17;95005.41;;;8.72
67966;BMP280;54749;47.850;9.002;2023-01-15T09:17:04;95014.16;;;8.39
67966;BMP280;54749;47.850;9.002;2023-01-15T09:19:31;95018.75;;;8.34
67966;BMP280;54749;47.850;9.002;2023-01-15T09:21:58;95011.28;;;8.04
67966;BMP280;54749;47.850;9.002;2023-01-15T09:24:25;95017.19;;;8.13
67966;BMP280;54749;47.850;9.002;2023-01-15T09:26:52;95026.50;;;8.22
67966;BMP280;54749;47.850;9.002;2023-01-15T09:29:19;95028.88;;;8.23
67966;BMP280;54749;47.850;9.002;2023-01-15T09:31:46;95024.38;;;8.27
67966;BMP280;54749;47.850;9.002;2023-01-15T09:34:13;95041.63;;;8.31
67966;BMP280;54749;47.850;9.002;2023-01-15T09:36:40;95061.75;;;8.31
67966;BMP280;54749;47.850;9.002;2023-01-15T09:39:08;95065.16;;;8.21
67966;BMP280;54749;47.850;9.002;2023-01-15T09:47:25;95061.13;;;8.09
67966;BMP280;54749;47.850;9.002;2023-01-15T09:50:20;95071.09;;;8.00
67966;BMP280;54749;47.850;9.002;2023-01-15T09:55:32;95078.41;;;8.23
67966;BMP280;54749;47.850;9.002;2023-01-15T09:58:02;95082.53;;;8.24
67966;BMP280;54749;47.850;9.002;2023-01-15T10:00:37;95090.94;;;8.34
67966;BMP280;54749;47.850;9.002;2023-01-15T10:03:19;95082.41;;;8.45
67966;BMP280;54749;47.850;9.002;2023-01-15T10:06:36;95113.09;;;8.59
67966;BMP280;54749;47.850;9.002;2023-01-15T10:09:14;95100.41;;;8.61
67966;BMP280;54749;47.850;9.002;2023-01-15T10:11:51;95096.94;;;8.62
67966;BMP280;54749;47.850;9.002;2023-01-15T10:14:58;95116.41;;;8.60
67966;BMP280;54749;47.850;9.002;2023-01-15T10:17:35;95113.66;;;8.63
67966;BMP280;54749;47.850;9.002;2023-01-15T10:20:10;95118.78;;;8.61
67966;BMP280;54749;47.850;9.002;2023-01-15T10:25:48;95126.97;;;8.54
67966;BMP280;54749;47.850;9.002;2023-01-15T10:28:20;95126.31;;;8.52
67966;BMP280;54749;47.850;9.002;2023-01-15T10:30:54;95131.28;;;8.43
67966;BMP280;54749;47.850;9.002;2023-01-15T10:33:48;95119.19;;;8.57
67966;BMP280;54749;47.850;9.002;2023-01-15T10:36:24;95121.94;;;8.54
67966;BMP280;54749;47.850;9.002;2023-01-15T10:38:58;95141.03;;;8.37
67966;BMP280;54749;47.850;9.002;2023-01-15T10:41:48;95139.78;;;8.31
67966;BMP280;54749;47.850;9.002;2023-01-15T10:47:02;95169.44;;;8.28
67966;BMP280;54749;47.850;9.002;2023-01-15T10:49:30;95167.19;;;8.25
67966;BMP280;54749;47.850;9.002;2023-01-15T10:52:02;95176.44;;;8.24
67966;BMP280;54749;47.850;9.002;2023-01-15T10:57:10;95178.50;;;8.20
67966;BMP280;54749;47.850;9.002;2023-01-15T10:59:40;95192.63;;;8.11
67966;BMP280;54749;47.850;9.002;2023-01-15T11:02:53;95189.66;;;7.96
67966;BMP280;54749;47.850;9.002;2023-01-15T11:05:24;95207.31;;;7.74
67966;BMP280;54749;47.850;9.002;2023-01-15T11:07:52;95204.69;;;7.65
67966;BMP280;54749;47.850;9.002;2023-01-15T11:10:40;95217.25;;;7.54
67966;BMP280;54749;47.850;9.002;2023-01-15T11:13:19;95224.94;;;7.42
67966;BMP280;54749;47.850;9.002;2023-01-15T11:16:13;95235.69;;;7.44
67966;BMP280;54749;47.850;9.002;2023-01-15T11:19:01;95247.78;;;7.39
67966;BMP280;54749;47.850;9.002;2023-01-15T11:21:48;95252.34;;;7.34
67966;BMP280;54749;47.850;9.002;2023-01-15T11:24:17;95248.78;;;7.37
67966;BMP280;54749;47.850;9.002;2023-01-15T11:26:47;95264.78;;;7.36
67966;BMP280;54749;47.850;9.002;2023-01-15T11:29:24;95266.84;;;7.20
67966;BMP280;54749;47.850;9.002;2023-01-15T11:31:54;95281.09;;;7.20
67966;BMP280;54749;47.850;9.002;2023-01-15T11:34:21;95284.66;;;7.17
67966;BMP280;54749;47.850;9.002;2023-01-15T11:37:00;95290.22;;;7.10
67966;BMP280;54749;47.850;9.002;2023-01-15T11:39:28;95281.19;;;7.08
67966;BMP280;54749;47.850;9.002;2023-01-15T11:41:58;95293.44;;;7.12
67966;BMP280;54749;47.850;9.002;2023-01-15T11:44:55;95303.84;;;7.18
67966;BMP280;54749;47.850;9.002;2023-01-15T11:47:52;95308.53;;;7.23
67966;BMP280;54749;47.850;9.002;2023-01-15T11:50:58;95312.84;;;7.21
67966;BMP280;54749;47.850;9.002;2023-01-15T11:53:28;95319.81;;;7.17
67966;BMP280;54749;47.850;9.002;2023-01-15T11:55:59;95338.88;;;7.09
67966;BMP280;54749;47.850;9.002;2023-01-15T11:58:30;95340.53;;;6.98
67966;BMP280;54749;47.850;9.002;2023-01-15T12:00:58;95336.75;;;6.93
67966;BMP280;54749;47.850;9.002;2023-01-15T12:03:28;95366.69;;;6.96
67966;BMP280;54749;47.850;9.002;2023-01-15T12:05:59;95352.59;;;6.82
67966;BMP280;54749;47.850;9.002;2023-01-15T12:16:55;95370.91;;;6.14
67966;BMP280;54749;47.850;9.002;2023-01-15T12:19:34;95363.56;;;6.12
67966;BMP280;54749;47.850;9.002;2023-01-15T12:35:33;95387.97;;;5.73
67966;BMP280;54749;47.850;9.002;2023-01-15T12:38:15;95397.13;;;5.74
67966;BMP280;54749;47.850;9.002;2023-01-15T12:41:06;95404.34;;;5.66
67966;BMP280;54749;47.850;9.002;2023-01-15T12:43:33;95408.31;;;5.57
67966;BMP280;54749;47.850;9.002;2023-01-15T12:46:24;95399.09;;;5.57
67966;BMP280;54749;47.850;9.002;2023-01-15T12:49:05;95403.06;;;5.35
67966;BMP280;54749;47.850;9.002;2023-01-15T12:51:46;95399.44;;;5.27
67966;BMP280;54749;47.850;9.002;2023-01-15T12:54:18;95397.03;;;5.25
67966;BMP280;54749;47.850;9.002;2023-01-15T12:57:12;95413.66;;;5.14
67966;BMP280;54749;47.850;9.002;2023-01-15T12:59:47;95409.75;;;5.23
67966;BMP280;54749;47.850;9.002;2023-01-15T13:02:26;95418.25;;;5.20
67966;BMP280;54749;47.850;9.002;2023-01-15T13:05:02;95409.16;;;5.19
67966;BMP280;54749;47.850;9.002;2023-01-15T13:07:42;95394.50;;;5.01
67966;BMP280;54749;47.850;9.002;2023-01-15T13:10:25;95411.69;;;4.93
67966;BMP280;54749;47.850;9.002;2023-01-15T13:12:54;95399.41;;;4.77
67966;BMP280;54749;47.850;9.002;2023-01-15T13:15:27;95409.88;;;4.70
67966;BMP280;54749;47.850;9.002;2023-01-15T13:20:49;95434.72;;;4.72
67966;BMP280;54749;47.850;9.002;2023-01-15T13:23:35;95437.50;;;4.68
67966;BMP280;54749;47.850;9.002;2023-01-15T13:34:41;95458.78;;;4.75
67966;BMP280;54749;47.850;9.002;2023-01-15T13:37:29;95458.03;;;4.73
67966;BMP280;54749;47.850;9.002;2023-01-15T13:40:03;95457.97;;;4.74
67966;BMP280;54749;47.850;9.002;2023-01-15T13:42:32;95448.75;;;4.75
67966;BMP280;54749;47.850;9.002;2023-01-15T13:47:34;95452.50;;;4.68
67966;BMP280;54749;47.850;9.002;2023-01-15T13:50:05;95460.66;;;4.72
67966;BMP280;54749;47.850;9.002;2023-01-15T13:52:38;95469.75;;;4.72
67966;BMP280;54749;47.850;9.002;2023-01-15T13:55:11;95477.38;;;4.71
67966;BMP280;54749;47.850;9.002;2023-01-15T13:57:42;95463.56;;;4.78
67966;BMP280;54749;47.850;9.002;2023-01-15T14:00:32;95455.47;;;4.74
67966;BMP280;54749;47.850;9.002;2023-01-15T14:03:28;95465.09;;;4.80
67966;BMP280;54749;47.850;9.002;2023-01-15T14:05:58;95472.97;;;4.74
67966;BMP280;54749;47.850;9.002;2023-01-15T14:08:44;95488.59;;;4.78
67966;BMP280;54749;47.850;9.002;2023-01-15T14:11:38;95475.41;;;4.62
67966;BMP280;54749;47.850;9.002;2023-01-15T14:14:43;95462.53;;;4.68
67966;BMP280;54749;47.850;9.002;2023-01-15T14:22:49;95485.31;;;4.64
67966;BMP280;54749;47.850;9.002;2023-01-15T14:31:32;95509.72;;;4.60
67966;BMP280;54749;47.850;9.002;2023-01-15T14:36:59;95493.28;;;4.56
67966;BMP280;54749;47.850;9.002;2023-01-15T14:42:08;95499.38;;;4.66
67966;BMP280;54749;47.850;9.002;2023-01-15T14:44:59;95502.41;;;4.71
67966;BMP280;54749;47.850;9.002;2023-01-15T14:47:49;95497.56;;;4.68
67966;BMP280;54749;47.850;9.002;2023-01-15T14:58:54;95518.28;;;4.70
67966;BMP280;54749;47.850;9.002;2023-01-15T15:04:09;95508.28;;;4.84
67966;BMP280;54749;47.850;9.002;2023-01-15T15:06:45;95498.31;;;4.96
67966;BMP280;54749;47.850;9.002;2023-01-15T15:09:18;95510.91;;;4.94
67966;BMP280;54749;47.850;9.002;2023-01-15T15:11:48;95500.03;;;4.82
67966;BMP280;54749;47.850;9.002;2023-01-15T15:14:37;95522.03;;;4.77
67966;BMP280;54749;47.850;9.002;2023-01-15T15:17:17;95500.97;;;4.67
67966;BMP280;54749;47.850;9.002;2023-01-15T15:19:49;95490.72;;;4.58
67966;BMP280;54749;47.850;9.002;2023-01-15T15:22:20;95494.84;;;4.45
67966;BMP280;54749;47.850;9.002;2023-01-15T15:24:49;95495.47;;;4.35
67966;BMP280;54749;47.850;9.002;2023-01-15T15:27:22;95503.50;;;4.26
67966;BMP280;54749;47.850;9.002;2023-01-15T15:29:49;95516.00;;;4.13
67966;BMP280;54749;47.850;9.002;2023-01-15T15:32:19;95525.44;;;4.08
67966;BMP280;54749;47.850;9.002;2023-01-15T15:34:49;95501.09;;;3.98
67966;BMP280;54749;47.850;9.002;2023-01-15T15:37:26;95500.81;;;3.88
67966;BMP280;54749;47.850;9.002;2023-01-15T15:40:00;95522.03;;;3.82
67966;BMP280;54749;47.850;9.002;2023-01-15T15:42:35;95515.59;;;3.78
67966;BMP280;54749;47.850;9.002;2023-01-15T15:45:27;95506.72;;;3.72
67966;BMP280;54749;47.850;9.002;2023-01-15T15:48:20;95495.56;;;3.64
67966;BMP280;54749;47.850;9.002;2023-01-15T15:54:23;95495.16;;;3.43
67966;BMP280;54749;47.850;9.002;2023-01-15T15:59:47;95495.22;;;3.28
67966;BMP280;54749;47.850;9.002;2023-01-15T16:02:32;95498.91;;;3.21
67966;BMP280;54749;47.850;9.002;2023-01-15T16:05:22;95483.66;;;3.12
67966;BMP280;54749;47.850;9.002;2023-01-15T16:07:50;95488.81;;;3.09
67966;BMP280;54749;47.850;9.002;2023-01-15T16:10:24;95479.31;;;3.00
67966;BMP280;54749;47.850;9.002;2023-01-15T16:12:53;95485.34;;;2.96
67966;BMP280;54749;47.850;9.002;2023-01-15T16:15:29;95504.63;;;2.94
67966;BMP280;54749;47.850;9.002;2023-01-15T16:17:58;95499.91;;;3.03
67966;BMP280;54749;47.850;9.002;2023-01-15T16:20:26;95485.44;;;3.10
67966;BMP280;54749;47.850;9.002;2023-01-15T16:22:56;95485.59;;;3.07
67966;BMP280;54749;47.850;9.002;2023-01-15T16:25:26;95483.25;;;3.04
67966;BMP280;54749;47.850;9.002;2023-01-15T16:27:56;95475.06;;;3.02
67966;BMP280;54749;47.850;9.002;2023-01-15T16:30:24;95470.94;;;3.01
67966;BMP280;54749;47.850;9.002;2023-01-15T16:32:51;95466.03;;;2.99
67966;BMP280;54749;47.850;9.002;2023-01-15T16:35:22;95463.06;;;2.93